Time;durP1;ratioP1;P1;durP2;ratioP2;P2;SDS_P1;SDS_P2;PMS_P1;PMS_P2;Temp;Humidity;BMP_temperature;BMP_pressure;BME280_temperature;BME280_humidity;BME280_pressure;Samples;Min_cycle;Max_cycle;Signal;HPM_P1;HPM_P2
2021/01/29 00:00:30;;;;;;;26.83;16.03;;;;;;;2.84;100.00;98841.31;4959670;29;20343;-36
2021/01/29 00:03:18;;;;;;;24.93;16.03;;;;;;;2.77;100.00;98832.84;4959429;29;20223;-35
2021/01/29 00:06:04;;;;;;;28.37;17.57;;;;;;;2.86;100.00;98821.75;4959612;29;20201;-35
2021/01/29 00:08:53;;;;;;;27.57;16.87;;;;;;;2.79;100.00;98797.94;4959326;29;20204;-35
2021/01/29 00:11:40;;;;;;;31.27;18.50;;;;;;;2.75;100.00;98794.53;4959132;29;20240;-33
2021/01/29 00:14:25;;;;;;;27.23;16.47;;;;;;;2.78;100.00;98796.25;4959433;29;20242;-35
2021/01/29 00:17:14;;;;;;;29.57;17.07;;;;;;;2.84;100.00;98790.25;4959235;29;20293;-38
2021/01/29 00:20:04;;;;;;;30.97;16.50;;;;;;;2.67;100.00;98780.94;4959078;29;20201;-34
2021/01/29 00:22:50;;;;;;;30.97;18.50;;;;;;;2.85;100.00;98782.59;4958946;29;20291;-34
2021/01/29 00:25:40;;;;;;;32.00;17.67;;;;;;;2.83;100.00;98783.44;4959232;29;20204;-37
2021/01/29 00:28:27;;;;;;;32.77;17.97;;;;;;;2.86;100.00;98783.44;4958775;29;20217;-33
2021/01/29 00:31:13;;;;;;;34.30;18.60;;;;;;;2.81;100.00;98772.38;4959253;29;20203;-39
2021/01/29 00:33:59;;;;;;;31.50;17.73;;;;;;;2.75;100.00;98769.03;4958887;29;20308;-33
2021/01/29 00:36:45;;;;;;;34.87;17.70;;;;;;;2.83;100.00;98761.31;4959200;29;20220;-38
2021/01/29 00:39:32;;;;;;;35.70;18.30;;;;;;;2.89;100.00;98745.16;4958761;29;20219;-34
2021/01/29 00:42:19;;;;;;;37.00;19.13;;;;;;;2.88;100.00;98734.09;4959007;29;20225;-33
2021/01/29 00:45:08;;;;;;;32.23;16.93;;;;;;;2.86;100.00;98732.38;4958935;29;20596;-37
2021/01/29 00:47:54;;;;;;;40.47;20.43;;;;;;;2.95;100.00;98706.84;4958803;29;20263;-38
2021/01/29 00:50:41;;;;;;;40.03;20.23;;;;;;;2.94;100.00;98713.66;4958965;29;20572;-35
2021/01/29 00:53:26;;;;;;;33.23;17.67;;;;;;;2.85;100.00;98702.59;4958839;29;20203;-37
2021/01/29 00:56:13;;;;;;;34.17;18.30;;;;;;;2.86;100.00;98696.63;4958781;29;20603;-33
2021/01/29 00:58:59;;;;;;;32.23;17.50;;;;;;;2.86;100.00;98688.97;4958650;29;20233;-34
2021/01/29 01:01:45;;;;;;;34.23;18.17;;;;;;;2.99;100.00;98680.44;4958664;29;20208;-37
2021/01/29 01:04:34;;;;;;;34.97;17.67;;;;;;;2.90;100.00;98678.75;4958499;29;20606;-36
2021/01/29 01:07:20;;;;;;;36.47;20.07;;;;;;;2.89;100.00;98682.16;4960287;28;20207;-38
2021/01/29 01:10:08;;;;;;;32.87;17.30;;;;;;;2.96;100.00;98665.97;4962310;29;20240;-35
2021/01/29 01:12:54;;;;;;;35.03;17.73;;;;;;;2.89;100.00;98666.00;4962166;29;20627;-34
2021/01/29 01:15:40;;;;;;;35.27;18.70;;;;;;;2.98;100.00;98654.06;4962230;29;20199;-37
2021/01/29 01:18:27;;;;;;;35.17;18.07;;;;;;;3.04;100.00;98654.00;4962646;29;20201;-33
2021/01/29 01:21:14;;;;;;;36.37;17.67;;;;;;;3.04;100.00;98648.03;4962103;29;20209;-36
2021/01/29 01:23:59;;;;;;;32.00;17.30;;;;;;;2.95;100.00;98646.41;4962374;29;20208;-35
2021/01/29 01:26:45;;;;;;;37.27;18.97;;;;;;;2.98;100.00;98637.88;4962477;29;20606;-32
2021/01/29 01:29:31;;;;;;;37.77;19.13;;;;;;;3.00;100.00;98639.53;4962109;29;20345;-32
2021/01/29 01:32:16;;;;;;;35.50;17.77;;;;;;;3.07;100.00;98637.81;4961787;29;20304;-34
2021/01/29 01:35:04;;;;;;;33.97;17.50;;;;;;;3.18;100.00;98635.22;4962223;29;20261;-33
2021/01/29 01:37:51;;;;;;;37.00;19.33;;;;;;;3.15;100.00;98615.66;4961711;29;20210;-34
2021/01/29 01:40:41;;;;;;;37.13;18.83;;;;;;;3.11;100.00;98616.50;4961757;29;20206;-37
2021/01/29 01:43:27;;;;;;;36.13;19.07;;;;;;;3.19;100.00;98611.38;4961962;29;20221;-35
2021/01/29 01:46:14;;;;;;;39.60;18.80;;;;;;;3.15;100.00;98597.75;4961718;29;20200;-35
2021/01/29 01:49:05;;;;;;;36.80;17.57;;;;;;;3.11;100.00;98579.03;4961766;29;20299;-32
2021/01/29 01:51:57;;;;;;;33.77;18.17;;;;;;;3.16;100.00;98570.50;4961660;29;20486;-33
2021/01/29 01:54:48;;;;;;;36.97;17.80;;;;;;;3.13;100.00;98556.06;4961565;29;20637;-33
2021/01/29 01:57:36;;;;;;;35.37;17.07;;;;;;;3.18;100.00;98556.03;4961511;29;20622;-34
2021/01/29 02:00:26;;;;;;;36.00;19.30;;;;;;;3.28;100.00;98540.59;4961941;29;20283;-33
2021/01/29 02:03:18;;;;;;;36.90;17.40;;;;;;;3.23;100.00;98532.13;4961647;29;20336;-33
2021/01/29 02:06:04;;;;;;;40.50;18.20;;;;;;;3.23;100.00;98518.50;4961418;29;20209;-34
2021/01/29 02:08:52;;;;;;;32.13;16.90;;;;;;;3.13;100.00;98509.22;4961076;29;20260;-36
2021/01/29 02:11:38;;;;;;;34.70;17.77;;;;;;;3.16;100.00;98504.94;4961270;29;20251;-33
2021/01/29 02:14:24;;;;;;;33.17;17.60;;;;;;;3.24;100.00;98504.88;4961407;29;20274;-32
2021/01/29 02:17:23;;;;;;;35.60;18.00;;;;;;;3.30;100.00;98500.56;4961103;29;20302;-35
2021/01/29 02:20:53;;;;;;;37.10;19.20;;;;;;;3.35;100.00;98492.88;4972865;28;20341;-37
2021/01/29 02:24:29;;;;;;;33.33;17.57;;;;;;;3.41;100.00;98485.13;4961153;29;20340;-36
2021/01/29 02:27:37;;;;;;;33.00;17.40;;;;;;;3.40;100.00;98483.44;4961247;29;20206;-34
2021/01/29 02:30:52;;;;;;;39.33;18.70;;;;;;;3.46;100.00;98478.28;4961136;29;20205;-35
2021/01/29 02:34:16;;;;;;;39.40;18.87;;;;;;;3.47;100.00;98473.16;4960754;29;20209;-35
2021/01/29 02:37:41;;;;;;;40.97;18.13;;;;;;;3.51;100.00;98458.63;4960725;29;20212;-34
2021/01/29 02:40:32;;;;;;;33.93;18.27;;;;;;;3.52;100.00;98452.66;4960820;29;20205;-34
2021/01/29 02:43:36;;;;;;;36.00;18.20;;;;;;;3.58;100.00;98446.66;4960453;29;20229;-35
2021/01/29 02:46:29;;;;;;;29.73;17.37;;;;;;;3.60;100.00;98434.66;4961274;29;20258;-33
2021/01/29 02:49:25;;;;;;;32.30;17.60;;;;;;;3.61;100.00;98423.59;4960602;29;20201;-33
2021/01/29 02:52:18;;;;;;;34.90;17.13;;;;;;;3.69;100.00;98414.13;4961046;29;20299;-34
2021/01/29 02:55:13;;;;;;;32.60;17.57;;;;;;;3.64;100.00;98401.41;4959869;29;20302;-34
2021/01/29 02:58:09;;;;;;;30.57;17.20;;;;;;;3.67;100.00;98388.59;4960235;29;20205;-36
2021/01/29 03:01:02;;;;;;;31.73;16.33;;;;;;;3.68;100.00;98387.72;4960267;29;20213;-36
2021/01/29 03:03:54;;;;;;;33.57;18.43;;;;;;;3.68;100.00;98374.09;4960355;29;20234;-33
2021/01/29 03:06:47;;;;;;;31.60;18.17;;;;;;;3.75;100.00;98362.94;4960419;29;20221;-33
2021/01/29 03:09:42;;;;;;;36.30;18.57;;;;;;;3.74;100.00;98354.41;4960158;29;20221;-32
2021/01/29 03:12:32;;;;;;;34.33;17.63;;;;;;;3.68;100.00;98349.38;4960213;29;20477;-33
2021/01/29 03:15:25;;;;;;;34.80;18.80;;;;;;;3.68;100.00;98331.47;4960201;29;20540;-33
2021/01/29 03:18:18;;;;;;;35.07;19.10;;;;;;;3.69;100.00;98322.94;4959916;29;20206;-33
2021/01/29 03:21:11;;;;;;;33.63;17.90;;;;;;;3.74;100.00;98310.94;4960261;29;20270;-32
2021/01/29 03:24:01;;;;;;;30.17;17.93;;;;;;;3.73;100.00;98314.38;4960262;29;20239;-32
2021/01/29 03:26:52;;;;;;;33.03;18.47;;;;;;;3.77;100.00;98305.81;4960075;29;20278;-36
2021/01/29 03:29:43;;;;;;;35.27;19.30;;;;;;;3.83;100.00;98293.78;4960372;28;20339;-33
2021/01/29 03:32:33;;;;;;;37.53;19.07;;;;;;;3.86;100.00;98294.59;4960089;29;20205;-36
2021/01/29 03:35:23;;;;;;;30.33;17.30;;;;;;;3.87;100.00;98291.16;4960180;29;20207;-34
2021/01/29 03:38:14;;;;;;;32.40;17.57;;;;;;;3.95;100.00;98278.28;4959705;29;20508;-34
2021/01/29 03:41:10;;;;;;;30.87;18.53;;;;;;;3.94;100.00;98279.16;4959718;29;20206;-34
2021/01/29 03:44:04;;;;;;;27.57;17.33;;;;;;;3.93;100.00;98259.56;4959809;29;20436;-34
2021/01/29 03:46:59;;;;;;;27.20;16.57;;;;;;;3.97;100.00;98266.31;4959190;29;20200;-36
2021/01/29 03:49:58;;;;;;;25.03;16.30;;;;;;;4.01;100.00;98252.59;4959716;29;20308;-32
2021/01/29 03:52:55;;;;;;;30.13;18.20;;;;;;;4.07;100.00;98247.38;4959492;29;20761;-33
2021/01/29 03:55:45;;;;;;;26.40;16.03;;;;;;;4.09;100.00;98245.66;4959400;29;20208;-35
2021/01/29 03:58:40;;;;;;;24.43;15.10;;;;;;;4.08;100.00;98233.72;4959747;29;20226;-35
2021/01/29 04:01:37;;;;;;;25.37;15.83;;;;;;;4.10;100.00;98229.44;4959114;29;20207;-36
2021/01/29 04:04:30;;;;;;;27.00;16.43;;;;;;;4.14;100.00;98225.97;4959543;29;20196;-35
2021/01/29 04:07:22;;;;;;;22.20;14.80;;;;;;;4.18;100.00;98216.53;4959266;29;20339;-35
2021/01/29 04:10:10;;;;;;;27.00;15.70;;;;;;;4.20;100.00;98210.50;4959310;29;20718;-34
2021/01/29 04:13:02;;;;;;;25.63;15.23;;;;;;;4.21;100.00;98204.50;4959662;29;20204;-36
2021/01/29 04:15:50;;;;;;;22.23;14.53;;;;;;;4.28;100.00;98192.47;4959039;29;20200;-34
2021/01/29 04:18:41;;;;;;;28.77;16.60;;;;;;;4.30;100.00;98189.00;4958863;29;20207;-36
2021/01/29 04:21:34;;;;;;;23.43;15.10;;;;;;;4.42;100.00;98186.22;4958885;29;20376;-35
2021/01/29 04:24:24;;;;;;;23.97;14.87;;;;;;;4.41;100.00;98176.84;4958565;29;20239;-34
2021/01/29 04:27:14;;;;;;;24.97;15.23;;;;;;;4.39;100.00;98176.06;4958808;29;20301;-32
2021/01/29 04:30:09;;;;;;;21.70;13.90;;;;;;;4.43;100.00;98167.44;4958950;29;20196;-33
2021/01/29 04:33:01;;;;;;;21.37;14.30;;;;;;;4.43;100.00;98158.91;4959002;29;20203;-35
2021/01/29 04:35:49;;;;;;;22.40;14.73;;;;;;;4.36;100.00;98147.97;4958938;29;20306;-35
2021/01/29 04:38:43;;;;;;;23.47;15.27;;;;;;;4.47;100.00;98148.59;4959157;29;20211;-34
2021/01/29 04:41:44;;;;;;;21.30;14.23;;;;;;;4.49;100.00;98141.72;4960461;28;20267;-35
2021/01/29 04:44:59;;;;;;;20.67;14.53;;;;;;;4.45;100.00;98134.13;4964977;29;20223;-39
2021/01/29 04:47:49;;;;;;;23.50;13.90;;;;;;;4.44;100.00;98124.78;4965309;28;20219;-34
2021/01/29 04:50:46;;;;;;;21.07;13.80;;;;;;;4.55;100.00;98122.03;4965241;29;20586;-34
2021/01/29 04:53:56;;;;;;;20.87;14.53;;;;;;;4.56;100.00;98109.19;4964977;29;20204;-35
2021/01/29 04:57:12;;;;;;;22.43;14.73;;;;;;;4.56;100.00;98105.78;4964709;29;20337;-37
2021/01/29 05:00:23;;;;;;;21.33;13.87;;;;;;;4.54;100.00;98095.56;4964705;28;20214;-32
2021/01/29 05:03:40;;;;;;;23.13;14.23;;;;;;;4.56;100.00;98078.47;4965123;29;20231;-32
2021/01/29 05:07:00;;;;;;;20.97;13.87;;;;;;;4.60;100.00;98076.66;4940901;29;20212;-33
2021/01/29 05:10:30;;;;;;;23.27;14.00;;;;;;;4.62;100.00;98069.78;4956682;28;20242;-35
2021/01/29 05:13:40;;;;;;;18.93;12.80;;;;;;;4.63;100.00;98051.00;4924477;29;20209;-34
2021/01/29 05:17:08;;;;;;;23.23;12.93;;;;;;;4.72;100.00;98038.88;4924972;29;20206;-36
2021/01/29 05:20:22;;;;;;;20.93;13.33;;;;;;;4.75;100.00;98038.81;4964717;28;20201;-38
2021/01/29 05:23:20;;;;;;;21.67;13.87;;;;;;;4.73;100.00;98020.06;4964634;29;20231;-34
2021/01/29 05:26:50;;;;;;;24.37;14.63;;;;;;;4.74;100.00;98015.78;4964993;29;20200;-38
2021/01/29 05:29:56;;;;;;;22.00;13.73;;;;;;;4.74;100.00;98000.41;4886910;29;20210;-34
2021/01/29 05:33:23;;;;;;;20.10;12.40;;;;;;;4.86;100.00;97995.00;4887613;29;20207;-33
2021/01/29 05:36:27;;;;;;;23.83;13.67;;;;;;;4.80;100.00;97983.19;4956457;28;20302;-33
2021/01/29 05:39:21;;;;;;;25.13;15.10;;;;;;;4.80;100.00;97975.50;4964564;28;20353;-32
2021/01/29 05:42:27;;;;;;;23.27;13.63;;;;;;;4.76;100.00;97966.22;4964459;28;20207;-32
2021/01/29 05:45:35;;;;;;;22.60;14.40;;;;;;;4.75;100.00;97969.66;4964665;28;20275;-32
2021/01/29 05:48:45;;;;;;;26.47;15.13;;;;;;;4.76;100.00;97967.94;4958842;29;20227;-33
2021/01/29 05:51:58;;;;;;;24.80;14.13;;;;;;;4.79;100.00;97962.75;4964602;28;20215;-34
2021/01/29 05:55:02;;;;;;;27.03;15.17;;;;;;;4.83;100.00;97962.63;4961633;29;20203;-36
2021/01/29 05:58:22;;;;;;;24.80;13.67;;;;;;;4.81;100.00;97951.56;4961470;29;20264;-34
2021/01/29 06:01:46;;;;;;;32.77;15.60;;;;;;;4.85;100.00;97940.38;4961622;29;20607;-36
2021/01/29 06:05:01;;;;;;;23.57;14.70;;;;;;;4.81;100.00;97933.66;4961327;29;20646;-33
2021/01/29 06:08:26;;;;;;;31.23;16.40;;;;;;;4.84;100.00;97927.63;4961341;29;20207;-36
2021/01/29 06:11:34;;;;;;;29.97;15.57;;;;;;;4.80;100.00;97919.16;4960511;29;20303;-35
2021/01/29 06:14:57;;;;;;;29.93;15.60;;;;;;;4.85;100.00;97913.94;4958307;29;20212;-35
2021/01/29 06:18:25;;;;;;;32.50;17.33;;;;;;;4.88;100.00;97907.91;4961027;29;20324;-35
2021/01/29 06:22:00;;;;;;;28.63;16.63;;;;;;;4.84;100.00;97900.28;4960591;29;20312;-33
2021/01/29 06:25:12;;;;;;;27.80;16.47;;;;;;;4.79;100.00;97907.25;4961004;29;20720;-33
2021/01/29 06:28:23;;;;;;;24.93;16.63;;;;;;;4.82;100.00;97896.06;4960915;29;20204;-32
2021/01/29 06:31:46;;;;;;;27.13;16.00;;;;;;;4.89;100.00;97899.34;4961082;29;20483;-32
2021/01/29 06:34:49;;;;;;;26.30;15.17;;;;;;;4.80;100.00;97897.81;4960234;29;20470;-34
2021/01/29 06:37:50;;;;;;;29.87;17.17;;;;;;;4.93;100.00;97894.09;4960033;29;20199;-33
2021/01/29 06:40:47;;;;;;;26.10;16.40;;;;;;;4.78;100.00;97885.09;4960443;29;20272;-34
2021/01/29 06:43:56;;;;;;;25.63;16.57;;;;;;;4.86;100.00;97877.19;4960362;29;20242;-34
2021/01/29 06:47:02;;;;;;;27.77;17.20;;;;;;;4.91;100.00;97879.66;4959942;29;20279;-34
2021/01/29 06:50:03;;;;;;;27.17;15.97;;;;;;;4.93;100.00;97888.97;4959880;29;20299;-34
2021/01/29 06:53:32;;;;;;;24.80;14.67;;;;;;;4.92;100.00;97877.06;4959927;29;20204;-32
2021/01/29 06:56:54;;;;;;;31.23;17.53;;;;;;;5.00;100.00;97887.94;4959569;29;20208;-33
2021/01/29 07:00:02;;;;;;;23.47;15.93;;;;;;;4.98;100.00;97882.03;4958836;29;20210;-33
2021/01/29 07:03:24;;;;;;;24.47;16.03;;;;;;;5.01;100.00;97881.94;4959417;29;20364;-36
2021/01/29 07:06:30;;;;;;;28.13;17.07;;;;;;;5.12;100.00;97874.81;4959249;28;20205;-38
2021/01/29 07:09:31;;;;;;;25.47;17.00;;;;;;;5.01;100.00;97870.84;4959183;29;20203;-35
2021/01/29 07:12:32;;;;;;;21.87;16.20;;;;;;;5.09;100.00;97876.63;4959019;29;20199;-34
2021/01/29 07:15:33;;;;;;;24.40;16.60;;;;;;;5.11;100.00;97877.44;4959201;29;20231;-37
2021/01/29 07:18:51;;;;;;;24.90;16.77;;;;;;;5.19;100.00;97876.38;4958752;29;20622;-32
2021/01/29 07:22:00;;;;;;;33.83;20.10;;;;;;;5.16;100.00;97865.34;4959272;29;20313;-32
2021/01/29 07:24:59;;;;;;;37.03;22.33;;;;;;;5.14;100.00;97873.06;4959236;29;20232;-34
2021/01/29 07:27:53;;;;;;;33.37;20.33;;;;;;;5.12;100.00;97863.75;4959169;29;20712;-32
2021/01/29 07:30:56;;;;;;;29.23;19.60;;;;;;;5.14;100.00;97867.09;4958635;29;20204;-34
2021/01/29 07:33:54;;;;;;;28.07;19.27;;;;;;;5.20;100.00;97862.63;4958686;29;20220;-34
2021/01/29 07:37:14;;;;;;;25.00;16.23;;;;;;;5.24;100.00;97867.69;4958603;29;20204;-32
2021/01/29 07:40:21;;;;;;;25.47;16.17;;;;;;;5.34;100.00;97862.28;4958463;29;20223;-36
2021/01/29 07:43:42;;;;;;;26.03;16.50;;;;;;;5.34;100.00;97869.97;4958621;29;20236;-33
2021/01/29 07:47:04;;;;;;;26.67;16.90;;;;;;;5.33;100.00;97876.00;4958573;29;20259;-36
2021/01/29 07:50:06;;;;;;;28.43;17.37;;;;;;;5.35;100.00;97868.25;4958536;29;20291;-35
2021/01/29 07:53:01;;;;;;;28.40;16.93;;;;;;;5.43;100.00;97867.16;4958431;29;20200;-34
2021/01/29 07:56:04;;;;;;;25.33;15.77;;;;;;;5.60;100.00;97866.69;4958488;29;20200;-34
2021/01/29 07:59:05;;;;;;;25.17;16.60;;;;;;;5.64;100.00;97868.28;4958499;29;20270;-33
2021/01/29 08:01:59;;;;;;;22.10;15.17;;;;;;;5.68;100.00;97869.06;4958571;29;20223;-33
2021/01/29 08:04:57;;;;;;;26.77;17.83;;;;;;;5.76;100.00;97865.41;4958389;29;20223;-34
2021/01/29 08:07:48;;;;;;;24.60;16.07;;;;;;;5.71;100.00;97868.97;4958532;29;20208;-33
2021/01/29 08:10:40;;;;;;;30.30;18.67;;;;;;;6.23;100.00;97866.59;4957570;29;20256;-33
2021/01/29 08:13:45;;;;;;;27.20;16.87;;;;;;;6.42;100.00;97866.00;4958615;29;20203;-33
2021/01/29 08:16:53;;;;;;;25.23;16.43;;;;;;;6.05;100.00;97859.44;4956961;29;20474;-35
2021/01/29 08:19:53;;;;;;;27.53;15.27;;;;;;;6.01;100.00;97870.66;4957911;29;20198;-33
2021/01/29 08:22:51;;;;;;;28.80;20.60;;;;;;;6.14;100.00;97866.03;4958150;29;20207;-35
2021/01/29 08:25:54;;;;;;;30.73;21.57;;;;;;;6.14;100.00;97861.75;4957757;29;20208;-34
2021/01/29 08:29:23;;;;;;;36.23;21.70;;;;;;;6.44;100.00;97859.94;4969836;28;20334;-34
2021/01/29 08:32:43;;;;;;;30.73;20.23;;;;;;;6.75;100.00;97864.13;4958441;29;20267;-35
2021/01/29 08:35:49;;;;;;;34.60;19.23;;;;;;;7.00;100.00;97861.56;4977772;28;20262;-34
2021/01/29 08:38:46;;;;;;;30.67;17.23;;;;;;;6.96;100.00;97867.72;4977327;28;20207;-35
2021/01/29 08:41:42;;;;;;;24.33;16.53;;;;;;;6.69;100.00;97857.44;4977209;28;20204;-34
2021/01/29 08:44:56;;;;;;;31.30;20.00;;;;;;;7.26;100.00;97862.38;4976894;28;20263;-33
2021/01/29 08:47:58;;;;;;;29.13;18.57;;;;;;;7.44;100.00;97871.19;4977442;28;20278;-34
2021/01/29 08:51:00;;;;;;;22.47;14.53;;;;;;;7.11;100.00;97857.75;4977850;28;20593;-33
2021/01/29 08:54:18;;;;;;;29.27;20.07;;;;;;;7.20;100.00;97864.31;4978002;28;20424;-34
2021/01/29 08:57:21;;;;;;;34.63;17.80;;;;;;;7.32;100.00;97878.50;4977235;28;20457;-34
2021/01/29 09:00:13;;;;;;;34.47;20.80;;;;;;;7.64;100.00;97867.06;4977304;28;20208;-32
2021/01/29 09:03:11;;;;;;;34.83;20.00;;;;;;;7.71;100.00;97871.94;4976685;28;20219;-34
2021/01/29 09:06:10;;;;;;;25.97;18.90;;;;;;;7.86;100.00;97873.94;4977071;28;20588;-36
2021/01/29 09:08:59;;;;;;;29.23;19.60;;;;;;;8.13;100.00;97876.41;4977448;28;20207;-36
2021/01/29 09:11:54;;;;;;;41.40;20.20;;;;;;;8.07;100.00;97886.94;4976851;28;20203;-34
2021/01/29 09:14:49;;;;;;;34.17;21.40;;;;;;;7.98;100.00;97888.13;4976563;28;20203;-35
2021/01/29 09:17:41;;;;;;;32.03;20.90;;;;;;;8.11;100.00;97889.34;4976624;28;20298;-38
2021/01/29 09:20:36;;;;;;;32.97;21.40;;;;;;;7.95;100.00;97893.38;4976487;28;20199;-37
2021/01/29 09:23:28;;;;;;;35.30;22.50;;;;;;;7.99;100.00;97892.38;4976481;28;20237;-33
2021/01/29 09:26:20;;;;;;;31.07;19.70;;;;;;;8.10;100.00;97887.66;4976406;28;20299;-33
2021/01/29 09:29:17;;;;;;;36.70;21.03;;;;;;;8.08;100.00;97891.19;4980185;28;20211;-32
2021/01/29 09:32:07;;;;;;;30.43;19.23;;;;;;;8.27;100.00;97894.75;4980658;28;20207;-34
2021/01/29 09:34:54;;;;;;;29.10;17.90;;;;;;;8.32;100.00;97892.00;4980762;28;20345;-38
2021/01/29 09:37:48;;;;;;;24.57;16.20;;;;;;;8.36;100.00;97896.19;4979973;28;20342;-34
2021/01/29 09:40:45;;;;;;;27.37;19.07;;;;;;;8.52;100.00;97902.41;4980095;28;20599;-32
2021/01/29 09:43:49;;;;;;;28.07;16.30;;;;;;;8.50;100.00;97909.34;4980473;28;20630;-33
2021/01/29 09:46:42;;;;;;;26.23;16.80;;;;;;;8.48;100.00;97895.69;4979856;28;20225;-35
2021/01/29 09:49:31;;;;;;;23.30;13.20;;;;;;;8.40;100.00;97911.44;4979760;28;20293;-35
2021/01/29 09:52:28;;;;;;;22.00;12.47;;;;;;;8.43;100.00;97913.91;4980249;28;20210;-33
2021/01/29 09:55:23;;;;;;;15.17;11.27;;;;;;;8.23;100.00;97903.47;4979940;28;20594;-32
2021/01/29 09:58:20;;;;;;;12.33;8.83;;;;;;;8.35;100.00;97909.94;4979814;28;20203;-36
2021/01/29 10:01:14;;;;;;;12.90;9.30;;;;;;;8.35;100.00;97920.25;4978982;28;20618;-37
2021/01/29 10:04:13;;;;;;;13.37;8.50;;;;;;;8.52;100.00;97923.88;4980123;28;20325;-36
2021/01/29 10:07:06;;;;;;;11.67;9.07;;;;;;;8.43;100.00;97924.19;4980489;28;20210;-36
2021/01/29 10:10:02;;;;;;;9.83;7.80;;;;;;;8.35;100.00;97921.09;4980225;28;20242;-36
2021/01/29 10:12:59;;;;;;;11.27;8.43;;;;;;;8.41;100.00;97920.84;4979382;28;20204;-35
2021/01/29 10:15:48;;;;;;;10.27;6.83;;;;;;;8.43;100.00;97925.94;4979215;28;20203;-35
2021/01/29 10:18:36;;;;;;;10.13;7.60;;;;;;;8.41;100.00;97925.16;4979761;28;20673;-34
2021/01/29 10:22:03;;;;;;;9.07;6.60;;;;;;;8.55;100.00;97923.75;4979057;28;20284;-34
2021/01/29 10:24:55;;;;;;;7.93;7.13;;;;;;;8.43;100.00;97929.34;4978848;28;20322;-32
2021/01/29 10:27:50;;;;;;;7.63;6.80;;;;;;;8.43;100.00;97931.94;4979234;28;20657;-35
2021/01/29 10:30:41;;;;;;;10.93;7.43;;;;;;;8.39;100.00;97943.28;4978699;28;20332;-33
2021/01/29 10:33:30;;;;;;;8.73;7.37;;;;;;;8.33;100.00;97943.50;4978893;28;20200;-33
2021/01/29 10:36:27;;;;;;;9.97;7.73;;;;;;;8.48;100.00;97953.22;4978317;28;20203;-32
2021/01/29 10:39:19;;;;;;;9.80;7.17;;;;;;;8.55;100.00;97939.22;4978631;28;20210;-35
2021/01/29 10:42:24;;;;;;;7.90;6.90;;;;;;;8.56;100.00;97946.03;4979393;28;20267;-34
2021/01/29 10:45:16;;;;;;;8.73;6.70;;;;;;;8.74;100.00;97953.97;4979525;28;20231;-35
2021/01/29 10:48:13;;;;;;;9.93;7.03;;;;;;;8.64;100.00;97956.88;4979373;28;20698;-34
2021/01/29 10:51:05;;;;;;;11.93;7.27;;;;;;;8.73;100.00;97963.44;4978560;28;20487;-32
2021/01/29 10:53:57;;;;;;;13.20;8.30;;;;;;;8.77;100.00;97959.84;4979109;28;20601;-35
2021/01/29 10:56:54;;;;;;;10.30;7.47;;;;;;;8.86;100.00;97966.34;4978154;28;20203;-32
2021/01/29 10:59:46;;;;;;;9.27;7.07;;;;;;;8.85;100.00;97967.25;4978665;28;20203;-31
2021/01/29 11:02:37;;;;;;;11.97;7.37;;;;;;;8.96;100.00;97975.44;4978781;28;20203;-36
2021/01/29 11:05:32;;;;;;;9.27;6.70;;;;;;;8.77;100.00;97972.72;4978677;28;20226;-34
2021/01/29 11:08:25;;;;;;;9.77;6.83;;;;;;;8.90;100.00;97973.91;4978645;28;20206;-32
2021/01/29 11:11:17;;;;;;;10.67;5.93;;;;;;;8.94;100.00;97983.22;4977741;28;20866;-34
2021/01/29 11:14:13;;;;;;;14.67;5.60;;;;;;;8.95;100.00;97990.06;4979207;28;20203;-32
2021/01/29 11:17:06;;;;;;;9.27;4.70;;;;;;;8.71;100.00;97988.44;4978383;28;20618;-31
2021/01/29 11:19:54;;;;;;;8.60;5.37;;;;;;;8.70;100.00;97994.47;4977749;28;20195;-35
2021/01/29 11:22:55;;;;;;;17.40;5.43;;;;;;;8.74;100.00;97996.03;4978581;28;20614;-34
2021/01/29 11:26:09;;;;;;;13.37;5.07;;;;;;;8.64;100.00;97998.13;4978210;28;20211;-37
2021/01/29 11:29:08;;;;;;;23.10;5.70;;;;;;;8.72;100.00;98008.16;4978878;28;20215;-35
2021/01/29 11:32:22;;;;;;;17.10;8.10;;;;;;;8.64;100.00;98002.44;4978064;28;20270;-33
2021/01/29 11:35:25;;;;;;;13.50;5.87;;;;;;;8.77;100.00;98016.56;4978908;28;20199;-33
2021/01/29 11:38:28;;;;;;;19.20;6.90;;;;;;;8.66;100.00;98010.09;4977979;28;20211;-34
2021/01/29 11:41:23;;;;;;;16.37;7.47;;;;;;;8.76;100.00;98006.28;4978291;28;20698;-36
2021/01/29 11:44:25;;;;;;;23.40;6.33;;;;;;;8.75;100.00;98018.34;4977659;28;20306;-36
2021/01/29 11:47:26;;;;;;;24.83;7.50;;;;;;;8.70;100.00;98016.84;4978300;28;20195;-37
2021/01/29 11:50:23;;;;;;;26.97;7.23;;;;;;;8.59;100.00;98015.47;4978073;28;20289;-32
2021/01/29 11:53:25;;;;;;;28.43;7.43;;;;;;;8.83;100.00;98016.28;4977637;28;20207;-35
2021/01/29 11:56:20;;;;;;;29.60;8.37;;;;;;;8.83;100.00;98028.34;4978242;28;20266;-36
2021/01/29 11:59:20;;;;;;;30.80;8.13;;;;;;;8.72;100.00;98030.50;4978258;28;20568;-33
2021/01/29 12:02:25;;;;;;;30.97;9.63;;;;;;;8.70;100.00;98030.56;4977462;28;20598;-33
2021/01/29 12:05:23;;;;;;;28.33;8.93;;;;;;;8.75;100.00;98027.81;4977981;28;20324;-33
2021/01/29 12:08:30;;;;;;;33.73;10.67;;;;;;;8.72;100.00;98036.50;4978076;28;20214;-33
2021/01/29 12:11:25;;;;;;;28.50;9.30;;;;;;;8.78;100.00;98032.84;4957127;29;20247;-33
2021/01/29 12:14:24;;;;;;;40.70;10.57;;;;;;;8.74;100.00;98033.88;4957675;29;20252;-35
2021/01/29 12:17:12;;;;;;;32.30;8.93;;;;;;;8.72;100.00;98035.66;4957960;29;20204;-33
2021/01/29 12:20:01;;;;;;;28.93;8.57;;;;;;;8.63;100.00;98024.78;4957925;29;20208;-35
2021/01/29 12:22:54;;;;;;;29.77;9.03;;;;;;;8.59;100.00;98037.84;4958652;29;20208;-33
2021/01/29 12:26:11;;;;;;;34.20;8.53;;;;;;;8.75;100.00;98038.13;4958105;29;20351;-35
2021/01/29 12:29:13;;;;;;;35.20;9.07;;;;;;;8.66;100.00;98041.03;4957858;29;20607;-34
2021/01/29 12:32:17;;;;;;;24.77;8.00;;;;;;;8.90;100.00;98040.13;4958374;29;20207;-33
2021/01/29 12:35:09;;;;;;;29.93;7.90;;;;;;;8.67;100.00;98034.97;4955386;29;20437;-33
2021/01/29 12:38:16;;;;;;;30.50;8.50;;;;;;;8.92;100.00;98044.31;4957230;29;20208;-33
2021/01/29 12:41:14;;;;;;;29.13;7.73;;;;;;;8.92;100.00;98051.22;4957735;29;20207;-35
2021/01/29 12:44:27;;;;;;;30.57;8.00;;;;;;;8.81;100.00;98049.03;4957704;29;20236;-34
2021/01/29 12:47:37;;;;;;;28.23;7.77;;;;;;;8.96;100.00;98039.88;4957665;29;20208;-35
2021/01/29 12:50:38;;;;;;;27.80;5.93;;;;;;;9.13;100.00;98042.66;4957293;29;20673;-37
2021/01/29 12:53:36;;;;;;;23.33;6.50;;;;;;;9.26;100.00;98043.84;4957485;29;20256;-34
2021/01/29 12:56:53;;;;;;;28.67;6.77;;;;;;;9.25;100.00;98044.75;4957142;29;20672;-33
2021/01/29 12:59:48;;;;;;;27.13;5.87;;;;;;;9.40;100.00;98043.28;4957526;29;20200;-37
2021/01/29 13:03:08;;;;;;;24.13;5.63;;;;;;;9.45;100.00;98046.53;4957736;28;20307;-36
2021/01/29 13:06:07;;;;;;;23.50;6.40;;;;;;;9.45;100.00;98045.69;4961329;29;20197;-33
2021/01/29 13:09:30;;;;;;;25.43;6.10;;;;;;;9.42;100.00;98036.31;4961522;29;20268;-33
2021/01/29 13:12:30;;;;;;;26.63;6.30;;;;;;;9.51;100.00;98048.03;4960158;29;20324;-33
2021/01/29 13:15:45;;;;;;;20.53;5.10;;;;;;;9.70;100.00;98036.06;4961515;29;20200;-34
2021/01/29 13:19:02;;;;;;;17.77;5.93;;;;;;;9.44;100.00;98039.69;4961002;28;20551;-33
2021/01/29 13:22:06;;;;;;;24.30;5.63;;;;;;;9.47;100.00;98034.41;4961083;29;20359;-33
2021/01/29 13:25:02;;;;;;;24.33;5.67;;;;;;;9.40;100.00;98038.13;4961392;29;20777;-35
2021/01/29 13:28:04;;;;;;;29.93;5.73;;;;;;;9.63;100.00;98044.94;4960700;29;20206;-36
2021/01/29 13:30:50;;;;;;;24.70;5.33;;;;;;;9.59;100.00;98043.41;4961629;29;20200;-31
2021/01/29 13:33:46;;;;;;;29.27;5.97;;;;;;;9.45;100.00;98036.22;4961218;29;20200;-32
2021/01/29 13:36:34;;;;;;;25.63;5.33;;;;;;;9.55;100.00;98034.94;4961068;29;20351;-33
2021/01/29 13:39:23;;;;;;;24.93;5.50;;;;;;;9.73;100.00;98038.50;4961138;29;20279;-34
2021/01/29 13:42:18;;;;;;;16.93;4.80;;;;;;;9.92;100.00;98042.00;4960983;29;20205;-34
2021/01/29 13:45:15;;;;;;;27.93;6.37;;;;;;;9.90;100.00;98033.47;4959713;29;20490;-35